createdAt,value
2023-05-07T00:05:42.613Z,12.01
2023-05-07T00:15:46.295Z,12.04
2023-05-07T00:25:49.386Z,11.95
2023-05-07T00:35:52.429Z,11.79
2023-05-07T00:45:56.848Z,11.79
2023-05-07T00:56:02.155Z,11.80
2023-05-07T01:06:07.773Z,11.71
2023-05-07T01:16:11.627Z,11.69
2023-05-07T01:26:17.431Z,11.71
2023-05-07T01:36:27.242Z,11.72
2023-05-07T01:46:32.462Z,11.65
2023-05-07T01:56:36.274Z,11.58
2023-05-07T02:06:39.805Z,11.56
2023-05-07T02:16:45.027Z,11.58
2023-05-07T02:26:49.933Z,11.51
2023-05-07T02:36:53.226Z,11.38
2023-05-07T02:46:59.271Z,11.35
2023-05-07T02:57:03.313Z,11.33
2023-05-07T03:07:06.597Z,11.20
2023-05-07T03:17:09.807Z,11.03
2023-05-07T03:27:13.137Z,11.05
2023-05-07T03:37:16.649Z,11.12
2023-05-07T03:47:20.323Z,11.20
2023-05-07T03:57:24.054Z,11.18
2023-05-07T04:07:27.951Z,11.21
2023-05-07T04:17:31.449Z,11.25
2023-05-07T04:27:34.628Z,11.16
2023-05-07T04:37:38.053Z,11.30
2023-05-07T04:47:42.031Z,11.40
2023-05-07T04:57:46.581Z,11.01
2023-05-07T05:07:50.728Z,10.32
2023-05-07T05:17:54.326Z,10.02
2023-05-07T05:27:57.899Z,9.87
2023-05-07T05:38:01.384Z,9.70
2023-05-07T05:48:05.057Z,9.65
2023-05-07T05:58:08.766Z,9.54
2023-05-07T06:08:14.927Z,9.55
2023-05-07T06:18:18.126Z,9.57
2023-05-07T06:28:21.538Z,9.51
2023-05-07T06:38:24.736Z,9.49
2023-05-07T06:48:28.266Z,9.57
2023-05-07T06:58:38.332Z,9.26
2023-05-07T07:08:41.838Z,9.09
2023-05-07T07:18:47.957Z,9.07
2023-05-07T07:28:51.287Z,9.03
2023-05-07T07:38:56.937Z,9.06
2023-05-07T07:49:01.092Z,9.02
2023-05-07T07:59:04.958Z,8.85
2023-05-07T08:09:09.610Z,8.84
2023-05-07T08:19:13.523Z,9.00
2023-05-07T08:29:17.294Z,8.88
2023-05-07T08:39:21.056Z,8.73
2023-05-07T08:49:25.933Z,8.77
2023-05-07T08:59:29.364Z,8.62
2023-05-07T09:09:34.771Z,8.46
2023-05-07T09:19:38.761Z,8.44
2023-05-07T09:29:42.930Z,8.68
2023-05-07T09:39:48.357Z,8.48
2023-05-07T09:49:59.152Z,8.46
2023-05-07T10:00:06.834Z,8.67
2023-05-07T10:10:25.190Z,8.76
2023-05-07T10:20:29.202Z,8.87
2023-05-07T10:41:06.780Z,9.22
2023-05-07T10:51:23.368Z,9.03
2023-05-07T11:01:54.115Z,8.89
2023-05-07T11:12:03.508Z,9.02
2023-05-07T11:22:32.662Z,9.19
2023-05-07T11:32:58.996Z,8.86
2023-05-07T11:43:11.822Z,8.71
2023-05-07T11:53:15.106Z,8.68
2023-05-07T12:03:19.525Z,8.64
2023-05-07T12:13:26.070Z,8.10
2023-05-07T12:23:30.419Z,7.75
2023-05-07T12:33:34.253Z,7.51
2023-05-07T12:43:37.556Z,7.40
2023-05-07T12:53:45.213Z,7.44
2023-05-07T13:03:50.359Z,7.39
2023-05-07T13:13:53.514Z,7.33
2023-05-07T13:23:56.783Z,7.30
2023-05-07T13:34:00.160Z,7.40
2023-05-07T13:44:03.310Z,7.21
2023-05-07T13:54:06.805Z,6.96
2023-05-07T14:04:12.885Z,6.76
2023-05-07T14:14:16.082Z,6.69
2023-05-07T14:24:34.512Z,6.80
2023-05-07T14:34:41.116Z,6.83
2023-05-07T14:44:45.912Z,6.87
2023-05-07T14:54:49.188Z,6.78
2023-05-07T15:04:52.387Z,6.69
2023-05-07T15:14:55.546Z,6.76
2023-05-07T15:24:59.901Z,6.79
2023-05-07T15:35:03.642Z,6.75
2023-05-07T15:45:07.504Z,6.58
2023-05-07T15:55:11.372Z,6.53
2023-05-07T16:05:14.822Z,6.46
2023-05-07T16:15:18.217Z,6.37
2023-05-07T16:25:21.373Z,6.38
2023-05-07T16:35:24.773Z,6.45
2023-05-07T16:45:28.004Z,6.41
2023-05-07T16:55:37.401Z,6.31
2023-05-07T17:05:43.059Z,6.31
2023-05-07T17:15:47.907Z,6.29
2023-05-07T17:25:51.120Z,6.20
2023-05-07T17:35:55.367Z,6.17
2023-05-07T17:45:58.461Z,6.12
2023-05-07T17:56:03.769Z,6.10
2023-05-07T18:06:09.459Z,5.97
2023-05-07T18:16:15.056Z,5.87
2023-05-07T18:26:18.396Z,5.82
2023-05-07T18:36:25.111Z,5.73
2023-05-07T18:46:29.697Z,5.72
2023-05-07T18:56:37.810Z,5.69
2023-05-07T19:06:41.355Z,5.60
2023-05-07T19:16:50.123Z,5.57
2023-05-07T19:26:53.492Z,5.54
2023-05-07T19:36:57.517Z,5.47
2023-05-07T19:47:02.577Z,5.39
2023-05-07T19:57:05.916Z,5.24
2023-05-07T20:07:11.868Z,5.23
2023-05-07T20:17:15.064Z,5.23
2023-05-07T20:27:22.370Z,5.25
2023-05-07T20:37:28.087Z,5.19
2023-05-07T20:47:34.331Z,5.18
2023-05-07T20:57:37.543Z,5.23
2023-05-07T21:07:40.980Z,5.23
2023-05-07T21:17:44.145Z,5.19
2023-05-07T21:27:47.360Z,5.20
2023-05-07T21:37:50.597Z,5.23
2023-05-07T21:47:53.796Z,5.27
2023-05-07T21:58:04.893Z,5.27
2023-05-07T22:08:08.953Z,5.27
2023-05-07T22:18:12.026Z,5.25
2023-05-07T22:28:15.318Z,5.28
2023-05-07T22:38:18.798Z,5.28
2023-05-07T22:48:21.920Z,5.25
2023-05-07T22:58:25.180Z,5.16
2023-05-07T23:08:28.314Z,5.16
2023-05-07T23:18:32.716Z,5.20
2023-05-07T23:28:35.891Z,5.19
2023-05-07T23:38:38.945Z,5.14
2023-05-07T23:48:42.172Z,5.04
2023-05-07T23:58:45.735Z,5.00
